24h
KLIENDITUGI:
Saartelennuliinid: +372 58856336 (24/7)
Estairi piletikassa lennujaamas:
+372 6058887; +372 55603687

08.11.2018 õhtune Transaviabaltika lend KTB676 Tallinn - Kärdla ja KTB677 Kärdla – Tallinn väljalend jääb ära. Lennu ära jäämise põhjustab madalad pilved Kärdla lennuvälja kohal. Reisijatele võimaldatakse tasuta lennupileti ümberbroneerimine reisija soovi kohasele mõnele teisele Tallinn-Kärdla või Kärdla-Tallinn lennule. Reisijatele kes ei soovi lennupileti ümberbroneerimist teisele lennule tagastatakse piletiraha. Oma soovist tuleb teada anda e-mailile [email protected] Lisainformatsioon telefonil 58856336

EEKA Kärdla lennuväli

FCEO32 EETN 081300 TAF EEKA 081300Z 0814/0820 15005KT 3000 BR OVC 003
 TEMPO 0815/0820 0500 FG VV001=

METAR EEKA 081350Z 12005KT 3700 BR OVC002 07/07 Q1021=
Kuupäev: 
08/11/2018